KNUQ/NUQ METAR and TAF weather

Enter ICAO airport designator
Station Type Date Time Source
KNUQ METAR 2020/08/11 13:55 UTC NOAA

KNUQ 111355Z AUTO 11004KT 9SM BKN014 17/14 A2992 RMK AO2


Station Type Date Time Source
KNUQ Decoded METAR 2020/08/11 13:55 UTC NOAA

MOFFETT FIELD, CA, United States (KNUQ) 37-26N 122-03W 19M
Aug 11, 2020 - 09:55 AM EDT / 2020.08.11 1355 UTC
Wind: from the ESE (110 degrees) at 5 MPH (4 KT):0
Visibility: 9 mile(s):0
Sky conditions: mostly cloudy
Temperature: 62 F (17 C)
Dew Point: 57 F (14 C)
Relative Humidity: 82%
Pressure (altimeter): 29.92 in. Hg (1013 hPa)
ob: KNUQ 111355Z AUTO 11004KT 9SM BKN014 17/14 A2992 RMK AO2
cycle: 14

Station Type Date Time Source
KNUQ TAF 2018/01/28 15:27 UTC NOAA

TAF COR KNUQ 2815/2915 14012G22KT 9999 SCT020 BKN035 BKN050 BKN120 650509 651406 540009 540909 QNH3017INS
TEMPO 2816/2822 14018G30KT 8000 -SHRA BKN015 OVC030
FM282200 14020G32KT 9999 SCT020 BKN050 BKN120 650509 651406 540009 540909 QNH3009INS
TEMPO 2909/2915 8000 -SHRA BKN015 OVC040 T08/2915Z T12/2922Z COR 1523 FS30085

Example: see airport list